Hamble, United Kingdom
Current Conditions -  °F | °C
As of 1:20 PM on Friday 19 Dec 2014 (Local Time) from EGHI Reporting Station
Few Clouds Few Clouds  
Wind Chill: 43°   Ceiling: Unl
Heat Index: 48°   Visibility: 6mi
Dew Point: 34°   Wind: 13mph
Humidity: 57%   Direction: 290°WNW
Pressure: 30.06"   Gusts: NA
Location:  50.86°N, 1.32°W
Report Text: EGHI 191320Z 29011KT 250V320 9999 FEW032 09/01 Q1018
Loading
Personal Weather Stations






























Interactive Weather Map New forecast layout! Learn more

10-Day Weather Forecast

Advertisements
Track Severe Weather on mobile